Time;durP1;ratioP1;P1;durP2;ratioP2;P2;SDS_P1;SDS_P2;PMS_P1;PMS_P2;Temp;Humidity;BMP_temperature;BMP_pressure;BME280_temperature;BME280_humidity;BME280_pressure;Samples;Min_cycle;Max_cycle;Signal;HPM_P1;HPM_P2
2023/01/01 00:01:46;;;;;;;13.27;6.35;;;16.70;86.30;;;;;;4175568;28;20404;-60
2023/01/01 00:04:29;;;;;;;15.20;8.23;;;16.60;86.30;;;;;;4175596;28;20102;-60
2023/01/01 00:07:09;;;;;;;15.88;7.78;;;16.60;86.30;;;;;;4175678;28;20392;-62
2023/01/01 00:12:48;;;;;;;20.20;8.68;;;16.60;87.80;;;;;;4190876;28;20430;-60
2023/01/01 00:15:29;;;;;;;15.32;7.68;;;16.70;88.30;;;;;;4191614;28;20151;-60
2023/01/01 00:18:10;;;;;;;17.98;9.32;;;16.70;87.60;;;;;;4191595;28;20051;-60
2023/01/01 00:20:52;;;;;;;19.13;9.90;;;16.70;87.60;;;;;;4190646;28;20056;-60
2023/01/01 00:23:34;;;;;;;15.02;10.18;;;16.70;87.70;;;;;;4190957;28;20047;-60
2023/01/01 00:26:17;;;;;;;15.68;9.07;;;16.70;87.60;;;;;;4191211;28;20079;-60
2023/01/01 00:28:57;;;;;;;21.17;8.48;;;16.70;87.70;;;;;;4189205;28;20461;-60
2023/01/01 00:31:39;;;;;;;17.17;9.70;;;16.60;87.90;;;;;;4175320;28;20507;-60
2023/01/01 00:34:20;;;;;;;15.25;10.68;;;16.60;87.90;;;;;;4174866;28;20119;-60
2023/01/01 00:37:02;;;;;;;17.65;7.32;;;16.60;88.10;;;;;;4175057;28;20056;-59
2023/01/01 00:39:42;;;;;;;19.45;10.40;;;16.60;88.10;;;;;;4187270;28;20469;-61
2023/01/01 00:42:23;;;;;;;16.15;10.13;;;16.60;88.30;;;;;;4190892;28;20093;-60
2023/01/01 00:45:05;;;;;;;19.45;10.13;;;16.60;88.30;;;;;;4192046;28;20113;-60
2023/01/01 00:47:46;;;;;;;15.40;8.48;;;16.60;88.30;;;;;;4191881;28;20535;-60
2023/01/01 00:50:27;;;;;;;24.95;11.18;;;16.60;88.40;;;;;;4192096;28;20135;-61
2023/01/01 00:53:09;;;;;;;22.27;12.68;;;16.60;88.50;;;;;;4192156;28;20096;-60
2023/01/01 00:55:51;;;;;;;26.92;12.65;;;16.60;88.50;;;;;;4191518;28;20047;-60
2023/01/01 00:58:31;;;;;;;22.55;14.75;;;16.60;88.60;;;;;;4175121;28;20051;-60
2023/01/01 01:01:12;;;;;;;25.05;15.27;;;16.50;88.50;;;;;;4174991;28;20060;-59
2023/01/01 01:03:53;;;;;;;18.48;13.32;;;16.50;89.30;;;;;;4184380;28;20056;-61
2023/01/01 01:06:35;;;;;;;28.90;15.32;;;16.50;89.30;;;;;;4191718;28;20548;-61
2023/01/01 01:09:17;;;;;;;24.58;13.80;;;16.50;88.50;;;;;;4191806;28;20067;-61
2023/01/01 01:11:57;;;;;;;26.17;13.05;;;16.50;88.50;;;;;;4191278;28;20048;-61
2023/01/01 01:14:57;;;;;;;24.60;14.73;;;16.50;88.70;;;;;;4190901;28;20052;-61
2023/01/01 01:17:37;;;;;;;24.73;14.23;;;16.50;88.70;;;;;;4162388;28;20048;-61
2023/01/01 01:20:18;;;;;;;24.93;13.73;;;16.50;88.50;;;;;;4174903;28;20143;-61
2023/01/01 01:22:59;;;;;;;23.02;14.70;;;16.50;88.70;;;;;;4187320;28;20075;-61
2023/01/01 01:25:41;;;;;;;19.80;13.90;;;16.50;88.60;;;;;;4179490;28;20056;-61
2023/01/01 01:28:22;;;;;;;31.23;15.80;;;16.50;88.50;;;;;;4194285;28;20289;-61
2023/01/01 01:31:04;;;;;;;20.15;14.25;;;16.50;88.70;;;;;;4193682;28;20056;-61
2023/01/01 01:33:45;;;;;;;21.80;15.10;;;16.50;88.80;;;;;;4194101;28;20056;-61
2023/01/01 01:36:27;;;;;;;20.10;13.00;;;16.50;89.00;;;;;;4194486;28;20071;-61
2023/01/01 01:39:10;;;;;;;22.83;13.38;;;16.50;89.10;;;;;;4194348;28;20133;-61
2023/01/01 01:41:52;;;;;;;22.98;15.13;;;16.50;90.00;;;;;;4183039;28;20059;-61
2023/01/01 01:44:53;;;;;;;25.45;15.20;;;16.50;89.30;;;;;;4194732;28;20407;-61
2023/01/01 01:47:38;;;;;;;23.73;15.05;;;16.40;89.00;;;;;;4194264;28;20067;-61
2023/01/01 01:50:25;;;;;;;28.15;15.85;;;16.40;89.20;;;;;;4193665;28;20059;-61
2023/01/01 01:53:08;;;;;;;27.02;17.40;;;16.40;89.30;;;;;;4193696;28;20052;-61
2023/01/01 01:55:53;;;;;;;26.38;17.90;;;16.50;89.30;;;;;;4193402;28;20125;-61
2023/01/01 01:58:36;;;;;;;23.15;14.82;;;16.40;89.30;;;;;;4203106;28;20534;-61
2023/01/01 02:01:17;;;;;;;31.35;17.98;;;16.40;89.50;;;;;;4194411;28;20147;-61
2023/01/01 02:04:00;;;;;;;25.75;14.98;;;16.40;89.60;;;;;;4194228;28;20399;-61
2023/01/01 02:06:41;;;;;;;23.92;16.80;;;16.40;89.60;;;;;;4194141;28;20064;-61
2023/01/01 02:09:23;;;;;;;25.25;16.88;;;16.40;89.90;;;;;;4194206;28;20051;-61
2023/01/01 02:12:03;;;;;;;29.98;19.27;;;16.40;89.80;;;;;;4193430;28;20121;-61
2023/01/01 02:14:46;;;;;;;31.02;20.67;;;16.40;89.80;;;;;;4193869;28;20178;-61
2023/01/01 02:17:32;;;;;;;20.90;13.70;;;16.40;89.90;;;;;;4193752;28;20068;-61
2023/01/01 02:20:23;;;;;;;;;;;16.40;90.00;;;;;;4194371;28;20059;-62
2023/01/01 02:23:31;;;;;;;30.70;19.13;;;16.40;90.00;;;;;;4177186;28;19932;-61
2023/01/01 02:26:38;;;;;;;33.55;20.75;;;16.40;90.00;;;;;;4177158;28;20117;-61
2023/01/01 02:29:38;;;;;;;27.75;20.02;;;16.40;90.00;;;;;;4176926;28;20052;-61
2023/01/01 02:32:23;;;;;;;27.27;18.40;;;16.30;90.00;;;;;;4176626;28;20067;-61
2023/01/01 02:38:08;;;;;;;31.73;19.38;;;16.30;90.10;;;;;;4182919;28;20542;-61
2023/01/01 02:40:52;;;;;;;24.95;17.20;;;16.30;90.50;;;;;;4193406;28;20475;-61
2023/01/01 02:43:33;;;;;;;27.67;17.25;;;16.30;90.10;;;;;;4180608;28;20052;-61
2023/01/01 02:46:15;;;;;;;24.95;16.92;;;16.30;90.10;;;;;;4193494;28;20080;-61
2023/01/01 02:48:55;;;;;;;28.08;16.48;;;16.30;90.10;;;;;;4193472;28;20055;-61
2023/01/01 02:51:47;;;;;;;25.17;15.27;;;16.30;90.20;;;;;;4182911;28;20458;-61
2023/01/01 02:54:35;;;;;;;22.63;13.85;;;16.40;90.20;;;;;;4192926;28;20060;-62
2023/01/01 02:57:24;;;;;;;24.73;14.98;;;16.30;90.20;;;;;;4176473;28;20486;-61
2023/01/01 03:00:23;;;;;;;25.88;12.60;;;16.30;90.20;;;;;;4182844;28;20505;-61
2023/01/01 03:03:18;;;;;;;21.55;11.82;;;16.30;90.20;;;;;;4203776;28;20051;-61
2023/01/01 03:06:23;;;;;;;21.52;12.82;;;16.30;90.20;;;;;;4193233;28;20186;-61
2023/01/01 03:09:14;;;;;;;25.15;12.20;;;16.30;90.20;;;;;;4176340;28;20056;-61
2023/01/01 03:12:01;;;;;;;16.90;11.73;;;16.30;90.30;;;;;;4180599;28;20051;-61
2023/01/01 03:14:47;;;;;;;25.25;11.32;;;16.30;90.30;;;;;;4192646;28;20059;-61
2023/01/01 03:17:33;;;;;;;14.88;10.68;;;16.30;90.30;;;;;;4178946;28;20122;-61
2023/01/01 03:20:19;;;;;;;19.48;9.57;;;16.30;90.20;;;;;;4192613;28;20071;-61
2023/01/01 03:23:06;;;;;;;18.20;9.23;;;16.30;90.20;;;;;;4192275;28;20035;-61
2023/01/01 03:25:50;;;;;;;21.48;9.82;;;16.30;90.20;;;;;;4192080;28;20059;-61
2023/01/01 03:28:35;;;;;;;16.30;9.27;;;16.20;90.20;;;;;;4192282;28;20048;-61
2023/01/01 03:31:21;;;;;;;18.25;10.35;;;16.20;90.00;;;;;;4192260;28;20792;-61
2023/01/01 03:34:04;;;;;;;16.80;9.55;;;16.20;90.00;;;;;;4192378;28;20550;-61
2023/01/01 03:36:53;;;;;;;15.27;9.65;;;16.20;90.40;;;;;;4192316;28;20105;-61
2023/01/01 03:39:37;;;;;;;21.48;10.10;;;16.20;90.00;;;;;;4185064;28;20059;-60
2023/01/01 03:42:26;;;;;;;18.58;9.75;;;16.30;90.00;;;;;;4192783;28;20379;-61
2023/01/01 03:45:12;;;;;;;17.63;9.38;;;16.20;90.00;;;;;;4191781;28;20174;-61
2023/01/01 03:47:53;;;;;;;20.00;9.50;;;16.20;90.10;;;;;;4192673;28;20059;-61
2023/01/01 03:50:48;;;;;;;18.58;9.15;;;16.20;90.20;;;;;;4192827;28;20138;-61
2023/01/01 03:53:38;;;;;;;18.75;9.57;;;16.20;90.20;;;;;;4175440;28;20122;-61
2023/01/01 03:56:26;;;;;;;19.20;10.15;;;16.20;90.30;;;;;;4175848;28;20052;-61
2023/01/01 03:59:15;;;;;;;16.63;10.25;;;16.20;90.30;;;;;;4175889;28;20056;-61
2023/01/01 04:01:58;;;;;;;23.33;11.38;;;16.20;90.30;;;;;;4175552;28;20052;-62
2023/01/01 04:04:39;;;;;;;19.20;10.70;;;16.20;90.40;;;;;;4175376;28;20063;-61
2023/01/01 04:07:21;;;;;;;13.38;8.40;;;16.20;90.40;;;;;;4191913;28;20104;-61
2023/01/01 04:10:15;;;;;;;14.98;11.20;;;16.20;90.50;;;;;;4191993;28;20051;-60
2023/01/01 04:12:57;;;;;;;14.25;7.15;;;16.20;90.60;;;;;;4175498;28;20051;-61
2023/01/01 04:15:39;;;;;;;12.18;6.43;;;16.20;90.60;;;;;;4163463;28;20060;-61
2023/01/01 04:18:19;;;;;;;9.55;4.97;;;16.20;90.70;;;;;;4175635;28;20051;-61
2023/01/01 04:21:00;;;;;;;10.80;5.18;;;16.10;90.70;;;;;;4189754;28;20105;-61
2023/01/01 04:23:41;;;;;;;6.65;4.22;;;16.10;90.70;;;;;;4191846;28;20552;-61
2023/01/01 04:26:24;;;;;;;9.88;4.70;;;16.10;90.80;;;;;;4179440;28;20051;-61
2023/01/01 04:29:04;;;;;;;5.97;3.95;;;16.10;90.80;;;;;;4192371;28;20051;-61
2023/01/01 04:31:46;;;;;;;9.52;4.18;;;16.10;90.90;;;;;;4192462;28;20399;-61
2023/01/01 04:34:26;;;;;;;9.20;4.18;;;16.10;90.90;;;;;;4191809;28;20059;-61
2023/01/01 04:37:07;;;;;;;10.55;4.32;;;16.10;90.90;;;;;;4179566;28;20055;-61
2023/01/01 04:39:53;;;;;;;9.02;4.32;;;16.10;91.20;;;;;;4191631;28;20506;-61
2023/01/01 04:42:35;;;;;;;10.35;5.10;;;16.10;90.90;;;;;;4191681;28;20050;-61
2023/01/01 04:45:16;;;;;;;10.32;4.55;;;16.10;90.90;;;;;;4191781;28;20379;-61
2023/01/01 04:48:03;;;;;;;8.68;4.60;;;16.10;90.90;;;;;;4190729;28;20125;-61
2023/01/01 04:50:43;;;;;;;7.85;3.95;;;16.10;90.90;;;;;;4191366;28;20476;-61
2023/01/01 04:53:25;;;;;;;8.05;3.90;;;16.10;90.90;;;;;;4191178;28;20051;-61
2023/01/01 04:56:07;;;;;;;8.27;3.63;;;16.10;90.90;;;;;;4191187;28;20059;-61
2023/01/01 04:58:49;;;;;;;10.65;3.80;;;16.10;91.00;;;;;;4191941;28;20060;-60
2023/01/01 05:01:31;;;;;;;8.82;3.40;;;16.10;91.00;;;;;;4182984;28;20060;-61
2023/01/01 05:04:14;;;;;;;5.78;3.35;;;16.00;90.90;;;;;;4206124;28;20159;-61
2023/01/01 05:06:55;;;;;;;9.88;4.20;;;16.10;91.00;;;;;;4194696;28;20503;-61
2023/01/01 05:09:36;;;;;;;8.50;3.65;;;16.00;91.30;;;;;;4194678;28;20059;-61
2023/01/01 05:12:17;;;;;;;10.38;3.63;;;16.00;91.00;;;;;;4194972;28;20052;-61
2023/01/01 05:14:59;;;;;;;9.43;3.63;;;16.10;91.10;;;;;;4194196;28;20059;-61
2023/01/01 05:17:40;;;;;;;10.00;3.67;;;16.10;91.00;;;;;;4194799;28;20059;-61
2023/01/01 05:20:20;;;;;;;5.50;3.05;;;16.00;91.00;;;;;;4194576;28;20055;-61
2023/01/01 05:23:01;;;;;;;7.97;3.08;;;16.00;91.10;;;;;;4195163;28;20125;-60
2023/01/01 05:25:42;;;;;;;9.13;4.03;;;16.00;91.00;;;;;;4194745;28;20075;-61
2023/01/01 05:28:25;;;;;;;6.90;3.00;;;16.00;91.00;;;;;;4193841;28;20047;-61
2023/01/01 05:31:10;;;;;;;10.88;3.28;;;16.00;91.00;;;;;;4194265;28;20190;-60
2023/01/01 05:33:52;;;;;;;6.07;3.25;;;16.00;91.10;;;;;;4195073;28;20097;-61
2023/01/01 05:36:37;;;;;;;8.50;2.63;;;16.00;91.10;;;;;;4194955;28;20064;-59
2023/01/01 05:39:18;;;;;;;5.68;2.72;;;16.00;91.10;;;;;;4195014;28;20048;-61
2023/01/01 05:41:59;;;;;;;10.75;2.85;;;16.00;91.50;;;;;;4194036;28;20066;-61
2023/01/01 05:44:40;;;;;;;4.40;2.55;;;16.00;91.20;;;;;;4194010;28;20086;-61
2023/01/01 05:47:22;;;;;;;12.80;3.08;;;16.00;91.50;;;;;;4194423;28;20482;-61
2023/01/01 05:50:08;;;;;;;4.28;2.20;;;16.00;91.10;;;;;;4194654;28;20071;-61
2023/01/01 05:52:47;;;;;;;10.80;2.85;;;16.00;91.10;;;;;;4194551;28;20047;-62
2023/01/01 05:55:29;;;;;;;6.47;2.63;;;16.00;91.10;;;;;;4193401;28;20521;-61
2023/01/01 05:58:10;;;;;;;6.00;2.63;;;16.00;91.10;;;;;;4193866;28;20086;-61
2023/01/01 06:00:51;;;;;;;7.20;2.20;;;16.00;91.10;;;;;;4194094;28;20047;-61
2023/01/01 06:03:34;;;;;;;12.60;3.03;;;16.00;91.10;;;;;;4193881;28;20141;-61
2023/01/01 06:06:17;;;;;;;9.70;2.03;;;15.90;91.10;;;;;;4194049;28;20055;-61
2023/01/01 06:09:00;;;;;;;2.92;1.95;;;15.90;91.10;;;;;;4193824;28;20057;-61
2023/01/01 06:11:41;;;;;;;5.75;2.05;;;15.90;91.10;;;;;;4193496;28;20060;-62
2023/01/01 06:14:22;;;;;;;8.70;2.40;;;16.00;91.20;;;;;;4193655;28;20079;-61
2023/01/01 06:17:03;;;;;;;6.13;2.15;;;16.00;91.10;;;;;;4193302;28;20047;-61
2023/01/01 06:19:45;;;;;;;4.07;1.30;;;15.90;91.10;;;;;;4193241;28;20415;-61
2023/01/01 06:22:26;;;;;;;5.97;1.90;;;16.00;91.10;;;;;;4177098;28;20182;-61
2023/01/01 06:25:09;;;;;;;4.85;1.50;;;15.90;91.10;;;;;;4177027;28;20095;-62
2023/01/01 06:27:49;;;;;;;4.68;1.60;;;15.90;91.10;;;;;;4187993;28;20395;-59
2023/01/01 06:30:33;;;;;;;5.03;1.67;;;15.90;91.20;;;;;;4177385;28;20052;-60
2023/01/01 06:33:13;;;;;;;5.15;1.63;;;15.90;91.20;;;;;;4177096;28;20048;-60
2023/01/01 06:35:56;;;;;;;4.05;1.30;;;15.90;91.30;;;;;;4192272;28;20150;-61
2023/01/01 06:38:41;;;;;;;5.20;1.60;;;15.90;91.30;;;;;;4194121;28;20387;-61
2023/01/01 06:41:25;;;;;;;6.18;1.48;;;16.00;91.30;;;;;;4194052;28;20087;-61
2023/01/01 06:44:06;;;;;;;3.80;1.30;;;16.00;91.20;;;;;;4194080;28;20105;-60
2023/01/01 06:46:46;;;;;;;2.72;1.27;;;15.90;91.10;;;;;;4193902;28;20059;-61
2023/01/01 06:49:27;;;;;;;4.20;1.23;;;16.00;91.10;;;;;;4193101;28;20063;-61
2023/01/01 06:52:10;;;;;;;5.80;1.30;;;16.00;91.00;;;;;;4193526;28;20229;-58
2023/01/01 06:54:51;;;;;;;4.63;1.40;;;16.00;90.90;;;;;;4193146;28;20063;-58
2023/01/01 06:57:33;;;;;;;2.53;1.35;;;15.90;90.90;;;;;;4193160;28;20082;-61
2023/01/01 07:00:15;;;;;;;5.03;1.30;;;15.90;91.00;;;;;;4192550;28;20163;-61
2023/01/01 07:02:56;;;;;;;2.58;0.80;;;15.90;90.90;;;;;;4192142;28;20495;-60
2023/01/01 07:05:37;;;;;;;5.13;1.67;;;15.90;90.90;;;;;;4192349;28;20059;-61
2023/01/01 07:08:19;;;;;;;3.35;1.25;;;15.90;90.90;;;;;;4176745;28;20098;-62
2023/01/01 07:11:00;;;;;;;3.17;1.00;;;15.90;90.90;;;;;;4176892;28;20123;-61
2023/01/01 07:13:41;;;;;;;5.10;1.27;;;15.90;91.20;;;;;;4177117;28;20499;-61
2023/01/01 07:16:23;;;;;;;5.55;1.40;;;15.90;90.80;;;;;;4192577;28;20060;-61
2023/01/01 07:19:04;;;;;;;3.22;1.58;;;15.90;90.70;;;;;;4192233;28;20055;-61
2023/01/01 07:21:47;;;;;;;9.00;1.20;;;15.80;91.00;;;;;;4191716;28;20133;-61
2023/01/01 07:24:29;;;;;;;7.38;1.65;;;15.80;90.70;;;;;;4176386;28;20387;-61
2023/01/01 07:27:10;;;;;;;9.60;1.65;;;15.90;90.70;;;;;;4176494;28;20043;-60
2023/01/01 07:29:51;;;;;;;11.43;1.98;;;15.90;90.50;;;;;;4163651;28;20203;-60
2023/01/01 07:32:32;;;;;;;8.45;1.50;;;16.00;90.40;;;;;;4175795;28;20207;-60
2023/01/01 07:35:13;;;;;;;9.27;1.67;;;16.00;90.70;;;;;;4190765;28;20125;-60
2023/01/01 07:37:54;;;;;;;5.15;1.55;;;16.10;90.20;;;;;;4192556;28;20454;-62
2023/01/01 07:40:36;;;;;;;7.63;2.50;;;16.10;90.00;;;;;;4176085;28;20059;-62
2023/01/01 07:43:17;;;;;;;10.40;1.83;;;16.20;89.70;;;;;;4181558;28;20063;-62
2023/01/01 07:45:58;;;;;;;6.50;1.88;;;16.20;89.10;;;;;;4174581;28;20102;-62
2023/01/01 07:48:39;;;;;;;7.93;2.63;;;16.20;88.70;;;;;;4176475;28;20506;-62
2023/01/01 07:51:20;;;;;;;11.00;2.55;;;16.20;88.10;;;;;;4174924;28;20047;-62
2023/01/01 07:54:01;;;;;;;15.70;2.03;;;16.20;88.10;;;;;;4174449;28;20494;-62
2023/01/01 07:56:48;;;;;;;13.10;2.08;;;16.20;88.10;;;;;;4175147;28;20052;-62
2023/01/01 07:59:29;;;;;;;13.52;2.13;;;16.20;87.90;;;;;;4173748;28;20051;-61
2023/01/01 08:02:11;;;;;;;10.40;2.25;;;16.20;87.80;;;;;;4188707;28;20167;-62
2023/01/01 08:04:52;;;;;;;11.35;1.88;;;16.10;87.70;;;;;;4173356;28;20056;-61
2023/01/01 08:07:34;;;;;;;10.10;2.25;;;16.10;87.70;;;;;;4182465;28;20090;-62
2023/01/01 08:10:16;;;;;;;13.05;2.22;;;16.10;87.60;;;;;;4180083;28;20133;-62
2023/01/01 08:13:00;;;;;;;;;;;16.10;87.50;;;;;;4188651;28;20067;-62
2023/01/01 08:15:41;;;;;;;9.85;1.95;;;16.10;87.40;;;;;;4160947;28;19951;-62
2023/01/01 08:18:22;;;;;;;12.15;2.90;;;16.00;87.50;;;;;;4180803;28;20052;-62
2023/01/01 08:21:04;;;;;;;10.73;2.50;;;16.00;87.50;;;;;;4180305;28;20071;-62
2023/01/01 08:23:45;;;;;;;10.43;3.33;;;16.00;87.50;;;;;;4174084;28;20206;-60
2023/01/01 08:26:31;;;;;;;14.20;2.05;;;16.00;87.30;;;;;;4184335;28;20050;-62
2023/01/01 08:29:13;;;;;;;12.38;2.95;;;16.00;87.20;;;;;;4177710;28;20051;-62
2023/01/01 08:31:54;;;;;;;12.80;2.80;;;16.00;87.20;;;;;;4170117;28;20056;-62
2023/01/01 08:34:35;;;;;;;10.43;2.05;;;16.00;87.10;;;;;;4176893;28;20051;-62
2023/01/01 08:37:16;;;;;;;12.75;2.70;;;15.90;87.10;;;;;;4175409;28;20060;-62
2023/01/01 08:39:57;;;;;;;11.32;2.63;;;16.00;87.20;;;;;;4181848;28;20048;-62
2023/01/01 08:42:38;;;;;;;8.60;2.37;;;16.00;87.20;;;;;;4182207;28;20118;-61
2023/01/01 08:45:20;;;;;;;14.48;2.67;;;15.90;86.90;;;;;;4178677;28;20055;-61
2023/01/01 08:48:02;;;;;;;15.50;2.33;;;15.90;86.90;;;;;;4174506;28;20117;-62
2023/01/01 08:50:42;;;;;;;16.15;3.53;;;15.90;87.00;;;;;;4182389;28;20056;-62
2023/01/01 08:53:23;;;;;;;18.08;2.85;;;15.90;87.10;;;;;;4182917;28;20051;-61
2023/01/01 08:56:07;;;;;;;9.43;2.00;;;15.90;87.10;;;;;;4180039;28;20110;-62
2023/01/01 08:58:48;;;;;;;12.20;3.03;;;15.90;87.40;;;;;;4186053;28;20055;-62
2023/01/01 09:01:30;;;;;;;14.07;2.67;;;15.90;88.30;;;;;;4178825;28;20201;-62
2023/01/01 09:04:12;;;;;;;14.90;2.53;;;15.80;88.10;;;;;;4178489;28;20622;-62
2023/01/01 09:06:56;;;;;;;11.65;2.53;;;15.80;87.90;;;;;;4181787;28;20724;-62
2023/01/01 09:09:37;;;;;;;18.02;3.17;;;15.80;87.80;;;;;;4179305;28;20068;-62
2023/01/01 09:12:18;;;;;;;14.45;4.07;;;15.80;87.80;;;;;;4179329;28;20158;-59
2023/01/01 09:15:01;;;;;;;15.07;3.45;;;15.80;88.00;;;;;;4175446;28;20060;-62
2023/01/01 09:17:44;;;;;;;10.75;2.55;;;15.80;87.80;;;;;;4180454;28;20067;-62
2023/01/01 09:20:25;;;;;;;12.60;2.72;;;15.80;87.70;;;;;;4188407;28;20213;-61
2023/01/01 09:23:08;;;;;;;15.38;3.00;;;15.80;87.80;;;;;;4173787;28;20048;-62
2023/01/01 09:25:49;;;;;;;7.57;1.90;;;15.80;87.70;;;;;;4173956;28;20442;-62
2023/01/01 09:28:31;;;;;;;16.00;3.30;;;15.80;87.60;;;;;;4183714;28;20552;-61
2023/01/01 09:31:12;;;;;;;;;;;15.80;87.40;;;;;;4181488;28;20059;-61
2023/01/01 09:33:55;;;;;;;10.30;2.25;;;15.80;87.40;;;;;;4184420;28;20029;-63
2023/01/01 09:36:35;;;;;;;12.65;2.03;;;15.80;87.80;;;;;;4179595;28;20396;-62
2023/01/01 09:39:16;;;;;;;11.18;3.15;;;15.70;87.80;;;;;;4174925;28;20052;-62
2023/01/01 09:42:33;;;;;;;10.95;2.15;;;15.70;87.50;;;;;;4174178;28;20060;-62
2023/01/01 09:45:23;;;;;;;19.58;3.15;;;15.70;87.20;;;;;;4184183;28;20223;-62
2023/01/01 09:48:07;;;;;;;11.57;2.47;;;15.80;88.00;;;;;;4190929;28;20163;-62
2023/01/01 09:50:49;;;;;;;13.77;2.20;;;15.90;88.10;;;;;;4179343;28;20528;-62
2023/01/01 09:53:34;;;;;;;10.65;2.58;;;16.30;86.90;;;;;;4180041;28;20090;-62
2023/01/01 09:56:19;;;;;;;16.83;2.97;;;16.70;85.10;;;;;;4186049;28;20130;-61
2023/01/01 09:59:00;;;;;;;12.35;2.17;;;17.20;83.10;;;;;;4181469;28;20083;-62
2023/01/01 10:01:49;;;;;;;11.00;2.50;;;17.70;81.10;;;;;;4181910;28;20056;-62
2023/01/01 10:04:46;;;;;;;7.35;1.65;;;18.20;78.80;;;;;;4181360;28;20498;-62
2023/01/01 10:07:38;;;;;;;14.48;2.30;;;18.60;76.60;;;;;;4166489;28;20068;-62
2023/01/01 10:10:28;;;;;;;10.48;2.38;;;19.00;74.40;;;;;;4184580;28;20063;-62
2023/01/01 10:13:17;;;;;;;15.95;3.20;;;19.30;73.10;;;;;;4190745;28;20086;-62
2023/01/01 10:16:01;;;;;;;7.43;2.17;;;19.50;72.00;;;;;;4185265;28;20122;-62
2023/01/01 10:18:43;;;;;;;9.75;2.45;;;19.60;71.40;;;;;;4175611;28;20515;-62
2023/01/01 10:21:25;;;;;;;;;;;19.60;71.30;;;;;;4187662;28;20218;-62
2023/01/01 10:24:27;;;;;;;15.15;3.00;;;19.60;71.80;;;;;;4186007;28;19946;-63
2023/01/01 10:27:20;;;;;;;9.95;2.92;;;19.40;71.80;;;;;;4183641;28;20109;-62
2023/01/01 10:30:03;;;;;;;15.60;2.72;;;19.40;72.10;;;;;;4162012;28;20581;-63
2023/01/01 10:32:48;;;;;;;14.80;3.15;;;19.40;72.30;;;;;;4175658;28;20068;-63
2023/01/01 10:35:35;;;;;;;13.57;2.65;;;19.40;72.40;;;;;;4174559;28;20483;-62
2023/01/01 10:38:21;;;;;;;12.68;3.35;;;19.40;71.90;;;;;;4187979;28;20383;-62
2023/01/01 10:41:08;;;;;;;11.75;2.50;;;19.50;72.00;;;;;;4190109;28;20131;-63
2023/01/01 10:43:55;;;;;;;11.38;3.40;;;19.50;71.80;;;;;;4174372;28;20891;-60
2023/01/01 10:46:40;;;;;;;8.80;2.67;;;19.40;71.80;;;;;;4175200;28;20059;-61
2023/01/01 10:49:21;;;;;;;14.32;2.72;;;19.40;71.90;;;;;;4174006;28;20059;-62
2023/01/01 10:52:02;;;;;;;11.32;2.38;;;19.40;72.40;;;;;;4176687;28;20182;-61
2023/01/01 10:54:44;;;;;;;9.60;2.67;;;19.30;72.70;;;;;;4174680;28;20118;-60
2023/01/01 10:57:33;;;;;;;9.32;2.95;;;19.30;72.50;;;;;;4183155;28;20051;-60
2023/01/01 11:00:24;;;;;;;12.07;3.10;;;19.30;72.50;;;;;;4183554;28;20190;-61
2023/01/01 11:03:18;;;;;;;9.80;2.50;;;19.30;72.30;;;;;;4172588;28;20063;-60
2023/01/01 11:06:13;;;;;;;10.50;1.85;;;19.20;72.50;;;;;;4179261;28;20067;-60
2023/01/01 11:08:57;;;;;;;10.73;2.58;;;19.10;72.70;;;;;;4174055;28;20060;-62
2023/01/01 11:11:42;;;;;;;10.93;2.75;;;19.00;73.30;;;;;;4161672;28;20056;-62
2023/01/01 11:14:28;;;;;;;8.80;2.13;;;19.00;73.40;;;;;;4173894;28;20134;-62
2023/01/01 11:17:10;;;;;;;9.48;2.13;;;19.10;73.30;;;;;;4175382;28;20072;-62
2023/01/01 11:19:51;;;;;;;;;;;19.00;73.40;;;;;;4178638;28;20055;-61
2023/01/01 11:22:40;;;;;;;8.85;1.90;;;19.00;73.70;;;;;;4189544;28;19958;-62
2023/01/01 11:25:25;;;;;;;6.35;1.48;;;18.90;73.70;;;;;;4173788;28;20426;-62
2023/01/01 11:28:20;;;;;;;10.57;2.53;;;18.90;74.10;;;;;;4179804;28;20044;-62
2023/01/01 11:31:15;;;;;;;7.10;2.00;;;18.90;74.00;;;;;;4179881;28;20067;-62
2023/01/01 11:33:57;;;;;;;7.43;1.67;;;19.00;73.70;;;;;;4177568;28;20051;-61
2023/01/01 11:36:38;;;;;;;8.77;1.98;;;18.90;74.30;;;;;;4175204;28;20171;-62
2023/01/01 11:39:23;;;;;;;8.95;1.83;;;18.90;74.30;;;;;;4176787;28;20186;-61
2023/01/01 11:42:07;;;;;;;10.65;2.00;;;18.80;74.60;;;;;;4174033;28;20055;-61
2023/01/01 11:44:51;;;;;;;7.95;1.75;;;18.70;74.70;;;;;;4181301;28;20135;-61
2023/01/01 11:47:36;;;;;;;10.50;2.80;;;18.70;75.50;;;;;;4174786;28;20191;-61
2023/01/01 11:50:27;;;;;;;7.60;1.73;;;18.60;75.40;;;;;;4182691;28;20056;-60
2023/01/01 11:53:30;;;;;;;10.73;1.92;;;18.60;75.70;;;;;;4186145;28;20145;-61
2023/01/01 11:56:15;;;;;;;7.25;2.53;;;18.50;75.60;;;;;;4173973;28;20183;-62
2023/01/01 11:58:59;;;;;;;13.32;2.72;;;18.40;76.40;;;;;;4173622;28;21179;-61
2023/01/01 12:01:46;;;;;;;11.55;2.33;;;18.30;76.40;;;;;;4175657;28;20092;-61
2023/01/01 12:04:36;;;;;;;11.10;2.60;;;18.20;78.30;;;;;;4174081;28;20059;-61
2023/01/01 12:07:22;;;;;;;13.13;2.17;;;18.20;77.90;;;;;;4181370;28;20056;-61
2023/01/01 12:10:11;;;;;;;11.02;2.00;;;18.20;78.10;;;;;;4174788;28;20510;-62
2023/01/01 12:13:00;;;;;;;6.18;2.00;;;18.30;78.00;;;;;;4187614;28;20070;-62
2023/01/01 12:15:48;;;;;;;7.00;2.03;;;18.30;78.30;;;;;;4176986;28;20052;-63
2023/01/01 12:18:35;;;;;;;11.20;2.10;;;18.30;78.00;;;;;;4187853;28;20125;-62
2023/01/01 12:21:23;;;;;;;7.72;2.33;;;18.30;78.00;;;;;;4173818;28;20486;-62
2023/01/01 12:24:10;;;;;;;7.53;2.20;;;18.30;78.10;;;;;;4185519;28;20051;-62
2023/01/01 12:27:09;;;;;;;6.93;1.90;;;18.30;78.10;;;;;;4181746;28;20050;-62
2023/01/01 12:30:05;;;;;;;12.50;2.83;;;18.30;77.30;;;;;;4186022;28;20047;-62
2023/01/01 12:33:46;;;;;;;8.88;2.30;;;18.30;77.90;;;;;;4179890;28;20162;-62
2023/01/01 12:36:38;;;;;;;10.73;2.55;;;18.20;77.50;;;;;;4138913;28;20077;-63
2023/01/01 12:39:54;;;;;;;9.05;1.65;;;18.20;78.50;;;;;;4153272;28;20057;-61
2023/01/01 12:42:47;;;;;;;10.52;2.50;;;18.10;78.80;;;;;;4176245;28;20513;-62
2023/01/01 12:45:54;;;;;;;12.98;2.42;;;18.10;79.20;;;;;;4181281;28;20051;-62
2023/01/01 12:48:57;;;;;;;11.40;2.15;;;18.00;79.20;;;;;;4164040;28;20052;-62
2023/01/01 12:51:49;;;;;;;14.73;1.95;;;18.00;79.10;;;;;;4185110;28;20109;-61
2023/01/01 12:54:56;;;;;;;10.88;2.50;;;18.00;79.30;;;;;;4174383;28;20060;-62
2023/01/01 12:57:43;;;;;;;10.75;2.22;;;18.00;79.10;;;;;;4179135;28;20059;-62
2023/01/01 13:00:25;;;;;;;9.52;2.40;;;18.00;79.50;;;;;;4177281;28;20094;-62
2023/01/01 13:03:18;;;;;;;6.75;2.22;;;17.90;79.70;;;;;;4185964;28;20373;-62
2023/01/01 13:06:00;;;;;;;8.90;1.90;;;17.90;79.70;;;;;;4172535;28;20163;-62
2023/01/01 13:08:44;;;;;;;9.75;2.20;;;17.80;80.20;;;;;;4172386;28;20102;-62
2023/01/01 13:11:26;;;;;;;9.20;1.95;;;17.80;80.20;;;;;;4174688;28;20052;-62
2023/01/01 13:14:07;;;;;;;10.18;2.17;;;17.80;80.40;;;;;;4174265;28;20174;-62
2023/01/01 13:16:52;;;;;;;6.68;2.13;;;17.70;80.80;;;;;;4185108;28;20063;-61
2023/01/01 13:19:36;;;;;;;9.18;2.40;;;17.70;81.00;;;;;;4174294;28;20135;-62
2023/01/01 13:22:41;;;;;;;12.75;2.97;;;17.70;80.80;;;;;;4175729;28;20063;-62
2023/01/01 13:25:24;;;;;;;11.57;2.03;;;17.70;80.60;;;;;;4189703;28;20044;-60
2023/01/01 13:28:12;;;;;;;9.07;2.38;;;17.70;81.00;;;;;;4180455;28;20509;-60
2023/01/01 13:30:53;;;;;;;11.90;2.42;;;17.70;80.90;;;;;;4191622;28;20082;-60
2023/01/01 13:33:35;;;;;;;9.98;2.28;;;17.70;81.10;;;;;;4180419;28;20138;-60
2023/01/01 13:36:32;;;;;;;9.95;2.60;;;17.70;81.50;;;;;;4191700;28;20047;-61
2023/01/01 13:39:52;;;;;;;11.20;2.15;;;17.70;80.90;;;;;;4188963;28;20402;-61
2023/01/01 13:42:50;;;;;;;8.68;2.05;;;17.80;80.50;;;;;;4183203;28;20647;-61
2023/01/01 13:45:35;;;;;;;9.48;2.17;;;17.80;80.10;;;;;;4191135;28;20060;-60
2023/01/01 13:49:14;;;;;;;12.55;2.38;;;17.80;80.30;;;;;;4190922;28;20077;-60
2023/01/01 13:52:24;;;;;;;9.20;1.92;;;17.90;79.90;;;;;;4193833;28;20047;-64
2023/01/01 13:55:38;;;;;;;12.35;2.50;;;18.00;79.30;;;;;;4206875;28;20042;-64
2023/01/01 13:58:44;;;;;;;11.52;2.92;;;18.20;78.80;;;;;;4199390;28;20063;-63
2023/01/01 14:01:40;;;;;;;7.38;2.10;;;18.30;78.20;;;;;;4177127;28;20574;-65
2023/01/01 14:04:37;;;;;;;8.02;2.60;;;18.30;78.10;;;;;;4176853;28;20068;-65
2023/01/01 14:07:28;;;;;;;13.90;2.50;;;18.30;77.60;;;;;;4176940;28;20056;-64
2023/01/01 14:10:31;;;;;;;8.38;2.08;;;18.30;78.10;;;;;;4183230;28;20065;-63
2023/01/01 14:13:17;;;;;;;10.85;2.65;;;18.30;78.10;;;;;;4200976;28;20050;-63
2023/01/01 14:16:03;;;;;;;9.50;2.60;;;18.20;79.00;;;;;;4194070;28;20174;-64
2023/01/01 14:18:47;;;;;;;15.32;2.67;;;18.20;78.50;;;;;;4193832;28;20063;-64
2023/01/01 14:21:31;;;;;;;7.50;2.45;;;18.20;78.60;;;;;;4177091;28;20052;-64